Weather reports worldwide

Advertisment
Rodkallen, Sweden (2188): temperature & dewpoint: 17.05.2018 03:00:00 - 23.05.2018 03:00:00 (CEST)Rodkallen, Sweden (2188): wind speed & gusts: 17.05.2018 03:00:00 - 23.05.2018 03:00:00 (CEST)Rodkallen, Sweden (2188): wind direction: 17.05.2018 03:00:00 - 23.05.2018 03:00:00 (CEST)Rodkallen, Sweden (2188): visibility: 17.05.2018 03:00:00 - 23.05.2018 03:00:00 (CEST)Rodkallen, Sweden (2188): precipitation: 17.05.2018 03:00:00 - 23.05.2018 03:00:00 (CEST)
Date & Time tt [°C] td [°C] ff [km/h] ff [kn] fx [km/h] fx [kn] dd vv [km] rr [mm]
23.05.2018 03:00:00 8,3 0,0 27 15 43 23 NNW 50 0,0
23.05.2018 02:00:00 9,1 0,0 29 16 44 24 NNW 50 0,0
23.05.2018 01:00:00 10,3 0,0 32 17 45 24 N 50 0,0
23.05.2018 00:00:00 10,8 3,6 31 17 45 24 NNW 50 0,0
22.05.2018 23:00:00 11,6 4,8 31 17 44 24 NNW 50 0,0
22.05.2018 22:00:00 10,4 8,2 19 10 31 17 N 26 0,0
22.05.2018 21:00:00 9,4 6,7 7 4 18 10 NW 33 0,0
22.05.2018 20:00:00 7,9 6,5 12 6 16 9 E 22 0,0
22.05.2018 19:00:00 9,2 6,5 4 2 15 8 NNE 32 0,0
22.05.2018 18:00:00 8,3 5,9 8 4 15 8 ESE 27 0,0
22.05.2018 17:00:00 8,1 5,4 10 5 17 9 ESE 29 0,0
22.05.2018 16:00:00 7,9 5,5 11 6 19 10 SSE 26 0,0
22.05.2018 15:00:00 8,7 5,6 14 7 19 10 SE 30 0,0
22.05.2018 14:00:00 8,6 5,3 12 6 18 10 SE 26 0,0
22.05.2018 13:00:00 8,9 5,8 13 7 19 10 ESE 24 0,0
22.05.2018 12:00:00 8,2 5,8 14 8 19 10 E 29 0,0
22.05.2018 11:00:00 7,9 5,4 14 8 18 10 E 20 0,0
22.05.2018 10:00:00 8,1 5,7 10 6 14 8 ENE 29 0,0
22.05.2018 09:00:00 8,5 5,2 10 5 17 9 E 36 0,0
22.05.2018 08:00:00 8,9 5,5 13 7 17 9 SE 42 0,0
22.05.2018 07:00:00 8,4 5,9 14 8 16 9 E 38 0,0
22.05.2018 06:00:00 8,8 5,5 5 3 10 6 NNE 39 0,0
22.05.2018 05:00:00 8,8 5,7 5 3 14 8 NW 47 0,0
22.05.2018 04:00:00 6,9 5,1 8 4 16 9 SSW 44 0,0
22.05.2018 03:00:00 7,2 5,2 10 5 18 10 S 46 0,0
22.05.2018 02:00:00 8,3 5,4 14 8 18 10 SSE 50 0,0
22.05.2018 01:00:00 11,3 5,8 10 6 14 7 N 50 0,0
22.05.2018 00:00:00 12,8 5,9 6 3 10 6 N 50 0,0
21.05.2018 23:00:00 12,9 5,8 0 0 16 9 N 50 0,0
21.05.2018 22:00:00 13,2 6,3 8 5 16 9 WNW 50 0,0
21.05.2018 21:00:00 10,6 5,8 6 3 14 8 W 50 0,0
21.05.2018 20:00:00 9,5 5,3 10 5 19 10 W 50 0,0
21.05.2018 19:00:00 9,6 4,6 11 6 24 13 S 50 0,0
21.05.2018 18:00:00 9,6 4,8 15 8 28 15 S 45 0,0
21.05.2018 17:00:00 9,7 5,3 22 12 32 17 S 38 0,0
21.05.2018 16:00:00 9,8 5,6 24 13 32 17 S 42 0,0
21.05.2018 15:00:00 9,4 5,0 26 14 29 16 S 40 0,0
21.05.2018 14:00:00 10,1 5,3 15 8 26 14 S 37 0,0
21.05.2018 13:00:00 9,4 5,4 22 12 26 14 S 36 0,0
21.05.2018 12:00:00 9,6 5,6 22 12 25 14 S 37 0,0
21.05.2018 11:00:00 8,8 5,2 14 8 18 10 S 41 0,0
21.05.2018 10:00:00 8,2 5,0 11 6 15 8 S 34 0,0
21.05.2018 09:00:00 9,4 5,2 5 3 13 7 S 43 0,0
21.05.2018 08:00:00 8,8 5,0 5 3 11 6 W 47 0,0
21.05.2018 07:00:00 7,2 5,0 3 2 12 7 W 43 0,0
21.05.2018 06:00:00 5,6 4,6 9 5 19 10 SW 36 0,0
21.05.2018 05:00:00 5,8 4,6 10 5 19 10 SSW 42 0,0
21.05.2018 04:00:00 5,5 4,5 14 8 17 9 S 45 0,0
21.05.2018 03:00:00 5,6 4,6 14 8 16 9 S 48 0,0
21.05.2018 02:00:00 5,6 4,6 10 6 25 14 SSW 44 0,0
21.05.2018 01:00:00 5,7 4,5 10 5 27 14 SSW 49 0,0
21.05.2018 00:00:00 6,1 4,3 21 12 27 15 S 50 0,0
20.05.2018 23:00:00 6,6 4,3 24 13 30 16 S 50 0,0
20.05.2018 22:00:00 6,6 4,1 21 12 30 16 S 50 0,0
20.05.2018 21:00:00 6,5 4,2 23 12 29 16 S 50 0,0
20.05.2018 20:00:00 6,2 3,9 22 12 34 19 S 50 0,0
20.05.2018 19:00:00 6,6 3,6 27 15 34 19 S 50 0,0
20.05.2018 18:00:00 7,6 3,3 29 16 36 19 S 50 0,0
20.05.2018 17:00:00 7,7 3,5 29 15 36 19 S 50 0,0
20.05.2018 16:00:00 7,2 3,8 29 15 36 19 S 47 0,0
20.05.2018 15:00:00 7,0 3,8 26 14 40 21 S 50 0,0
20.05.2018 14:00:00 7,7 4,1 32 17 40 21 S 50 0,0
20.05.2018 13:00:00 7,9 4,1 31 17 40 21 S 47 0,0
20.05.2018 12:00:00 7,7 4,3 26 14 30 16 S 45 0,0
20.05.2018 11:00:00 7,3 4,3 19 10 25 13 SSE 48 0,0
20.05.2018 10:00:00 7,4 4,4 16 9 21 11 SSE 50 0,0
20.05.2018 09:00:00 7,1 4,6 14 7 16 9 SSW 47 0,0
20.05.2018 08:00:00 7,4 4,9 13 7 16 9 SSW 46 0,0
20.05.2018 07:00:00 6,9 4,7 11 6 12 7 SSW 50 0,0
20.05.2018 06:00:00 6,9 4,2 8 4 14 7 WSW 34 0,0
20.05.2018 05:00:00 6,7 4,7 9 5 14 7 WSW 50 0,0
20.05.2018 04:00:00 6,8 4,5 11 6 17 9 WSW 50 0,0
20.05.2018 03:00:00 6,1 3,9 9 5 32 17 W 50 0,0
20.05.2018 02:00:00 6,6 4,1 14 7 32 17 W 50 0,0
20.05.2018 01:00:00 7,6 4,5 22 12 26 14 W 50 0,0
20.05.2018 00:00:00 7,7 4,1 22 12 26 14 WSW 50 0,0
19.05.2018 23:00:00 8,3 3,9 23 13 29 16 W 50 0,0
19.05.2018 22:00:00 8,7 4,1 17 9 29 16 WNW 50 0,0
19.05.2018 21:00:00 6,5 3,8 16 9 28 15 SW 50 0,0
19.05.2018 20:00:00 5,9 3,4 18 10 31 17 SSW 50 0,0
19.05.2018 19:00:00 6,0 2,6 25 13 42 23 SSW 50 0,0
19.05.2018 18:00:00 6,6 2,3 27 14 44 24 S 45 0,0
19.05.2018 17:00:00 7,4 1,7 37 20 44 24 S 50 0,0
19.05.2018 16:00:00 7,9 2,2 37 20 43 23 S 45 0,0
19.05.2018 15:00:00 8,0 2,5 32 17 39 21 S 42 0,0
19.05.2018 14:00:00 8,3 2,7 28 15 33 18 S 46 0,0
19.05.2018 13:00:00 - - - - 29 16 - - -
19.05.2018 12:00:00 8,7 3,3 18 10 22 12 S 41 0,0
19.05.2018 11:00:00 8,4 3,8 16 9 22 12 S 34 0,0
19.05.2018 10:00:00 8,1 4,3 10 5 16 9 SSW 39 0,0
19.05.2018 09:00:00 8,0 3,6 13 7 16 9 WSW 44 0,0
19.05.2018 08:00:00 7,1 3,2 11 6 15 8 W 46 0,0
19.05.2018 07:00:00 6,3 2,2 9 5 15 8 W 43 0,0
19.05.2018 06:00:00 5,8 2,1 13 7 19 10 WNW 50 0,0
19.05.2018 05:00:00 5,3 2,3 13 7 19 10 W 50 0,0
19.05.2018 04:00:00 4,9 2,1 13 7 20 11 WNW 50 0,0
19.05.2018 03:00:00 5,0 1,8 14 8 20 11 W 50 0,0
19.05.2018 02:00:00 5,5 2,0 13 7 16 9 WNW 50 0,0
19.05.2018 01:00:00 6,0 2,1 13 7 17 9 WNW 50 0,0
19.05.2018 00:00:00 6,9 2,2 13 7 19 10 WNW 50 0,0
18.05.2018 23:00:00 8,3 1,9 15 8 22 12 WNW 50 0,0
18.05.2018 22:00:00 8,7 1,8 8 5 22 12 NW 50 0,0
18.05.2018 21:00:00 12,0 -1,9 6 4 13 7 NW 50 0,0
18.05.2018 20:00:00 12,5 -2,2 7 4 22 12 NW 50 0,0
18.05.2018 19:00:00 13,9 -2,5 4 2 30 16 NNW 48 0,0
18.05.2018 18:00:00 12,5 -1,8 16 9 30 16 WNW 49 0,0
18.05.2018 17:00:00 14,0 -2,0 18 10 26 14 NW 50 0,0
18.05.2018 16:00:00 14,5 0,0 17 9 24 13 NW 37 0,0
18.05.2018 15:00:00 9,7 4,1 15 8 18 10 SW 40 0,0
18.05.2018 14:00:00 10,5 2,8 10 6 16 9 WSW 47 0,0
18.05.2018 13:00:00 10,1 3,1 7 4 14 8 WSW 42 0,0
18.05.2018 12:00:00 8,7 3,7 7 4 17 9 WSW 38 0,0
18.05.2018 11:00:00 8,1 2,8 11 6 17 9 SW 37 0,0
18.05.2018 10:00:00 6,5 3,5 10 5 13 7 SW 35 0,0
18.05.2018 09:00:00 7,5 3,0 5 3 14 8 W 40 0,0
18.05.2018 08:00:00 5,9 2,5 11 6 14 8 W 44 0,0
18.05.2018 07:00:00 5,4 3,4 9 5 12 7 W 41 0,0
18.05.2018 06:00:00 5,8 3,6 5 3 9 5 WNW 40 0,0
18.05.2018 05:00:00 5,3 2,6 5 3 9 5 NW 50 0,0
18.05.2018 04:00:00 4,2 2,4 7 4 9 5 WNW 50 0,0
18.05.2018 03:00:00 4,1 1,8 6 3 8 5 NW 50 0,0
18.05.2018 02:00:00 5,1 1,6 3 2 8 4 NW 50 0,0
18.05.2018 01:00:00 5,5 2,0 2 1 10 6 W 50 0,0
18.05.2018 00:00:00 5,2 2,4 6 4 10 6 W 50 0,0
17.05.2018 23:00:00 6,3 2,9 3 2 5 3 NNE 50 0,0
17.05.2018 22:00:00 6,9 2,6 0 0 12 7 N 50 0,0
17.05.2018 21:00:00 9,3 3,1 4 2 16 9 N 50 0,0
17.05.2018 20:00:00 11,9 0,9 9 5 16 9 NW 50 0,0
17.05.2018 19:00:00 11,7 3,0 11 6 16 9 NW 50 0,0
17.05.2018 18:00:00 11,0 2,0 11 6 23 12 NNW 50 0,0
17.05.2018 17:00:00 11,6 2,6 11 6 26 14 N 50 0,0
17.05.2018 16:00:00 12,7 1,4 14 8 27 15 NNW 43 0,0
17.05.2018 15:00:00 13,0 1,9 16 9 32 18 NNW 45 0,0
17.05.2018 14:00:00 12,7 0,4 21 12 32 18 NNW 48 0,0
17.05.2018 13:00:00 12,8 0,2 22 12 34 18 NNW 38 0,0
17.05.2018 12:00:00 12,5 0,9 22 12 38 20 NNW 43 0,0
17.05.2018 11:00:00 10,8 -0,1 23 12 42 23 NNW 40 0,0
17.05.2018 10:00:00 10,1 0,4 28 15 42 23 NW 39 0,0
17.05.2018 09:00:00 9,4 0,6 29 15 41 22 NW 47 0,0
17.05.2018 08:00:00 7,8 0,7 24 13 44 24 NW 50 0,0
17.05.2018 07:00:00 8,2 0,9 29 16 44 24 NW 50 0,0
17.05.2018 06:00:00 8,0 0,9 27 14 40 22 NW 50 0,0
17.05.2018 05:00:00 8,1 1,3 26 14 44 24 NW 50 0,0
17.05.2018 04:00:00 8,4 1,3 31 17 44 24 NW 50 0,0
17.05.2018 03:00:00 9,3 1,7 29 16 42 23 NW 50 0,0

tt = temperature
td = dewpoint
ff = wind speed
fx = gusts
dd = wind direction
vv = visibility
rr = precipitation

Next stations